Portada
METAR-TAF:

METAR-TAF

Aeroports :

Olympic Dam, Austràlia

latitud: 30-29-06S, longitud: 136-52-36E, altitud: 105 m

Observació

L'informe es va fer fa 1 hora i 0 minuts, a les 19:00 UTC
Vent 10 kt del Sud/Sud-Est
Temperatura 15°C
Humitat 63%
Pressió 1020 hPa
Visibilitat 10 km o més

METAR: YOLD 131900Z AUTO 16010KT 9999 // NCD 15/08 Q1020

Hora: 06:30 (20:00 UTC)

Pronòstic

L'informe es va fer fa 2 hores i 3 minuts, a les 17:57 UTC
Pronòstic vàlid del 13 a les 19 UTC al 14 a les 08 UTC
Vent 10 kt del Sud/Sud-Est
Visibilitat 10 km o més
sense núvols per sota de 1500 mi sense presència de cumulonimbus.
A partir de les 14 a les 0200 UTC
Vent 12 kt del Oest/Sud-Oest
Visibilitat 10 km o més
sense núvols per sota de 1500 mi sense presència de cumulonimbus.

TAF: YOLD 131757Z 1319/1408 15010KT CAVOK FM140200 24012KT CAVOK

Observacions i pronòstics meteorològics de més de 4000 aeroports (METAR i TAF).

Les estacions disponibles són els punts grocs i vermells al mapa.

Posi el ratolí al punt desitjat per veure el nom de l'estació.

Feu clic per veure les observacions i els pronòstics meteorològics.

Per canviar el mapa: feu clic els botons verds amb una creu de color negre per apropar; al botó verd amb un guió per allunyar la imatge; o en les fletxes verdes per a mapes adjacents.


METAR-TAF: